Darstellungsparameter: Aktuell verwendete Einstellungen:
Skalierung der Graphiken ... ?
xyx+y,   Skalierungsfaktor:      Skalierung: Modus: x, Faktor: 1
Darstellungszeitraum ... ?
Vom - - bis: - -   Zeitraum: 29.09.2011 - 29.09.2011
Min/Max/Avg-Anzeige ... ?
Zeige MMA aktuell
Zeige MMA Monat
Zeige MMA alles
Zeige --A aktuell
Zeige --A Monat
Zeige --A alles
Keine MMA-Anzeige
MMA:
Average (ber die Originaldaten)
MMA-Basis: 29.09.2011 - 29.09.2011
Quicknavigation für Darstellung... ?
Tage:      1T, 2T, 3T, 5T -1T -2T -3T -5T +1T +2T +3T +5T
Wochen: 1W, 2W, 3W -1W -2W -3W +1W +2W +3W
Monate: 1M, 3M, 6M -1M -3M -6M +1M +3M +6M
Jahre:    1J, 3J, 5J, 10J -1J -3J -5J -10J +1J +3J +5J +10J
Nutze für die Darstellung ... ?
Originaldaten oder Mittelwerte auf ...
Stundenbasis Tagesbasis Wochenbasis
Monatsbasis Jahresbasis      Datenbasis: Original-Daten
Darstellen als:
Statistik (Auto) Statistik J:M      Darstellung:
Zur Graphik,    zurück zur Übersicht aller Sensoren.
 
Tabellarische Datenbersicht: ?
 
Sensor: Nr:Datum:Temp:Abs-Feuchte:Windchill:Wind:
Aussen-T/F 1 29-09-2011 00:10:02 14.8 C 11.02 g/m*3 14.8 C 0 km/h
2 29-09-2011 00:22:01 14.3 C 10.69 g/m*3 14.3 C 0 km/h
3 29-09-2011 00:34:01 14.1 C 10.56 g/m*3 14.1 C 0 km/h
4 29-09-2011 00:46:01 13.9 C 10.55 g/m*3 13.9 C 0 km/h
5 29-09-2011 00:58:01 13.7 C 10.42 g/m*3 13.7 C 0 km/h
6 29-09-2011 01:10:02 13.6 C 10.24 g/m*3 13.6 C 0 km/h
7 29-09-2011 01:22:01 13.4 C 10.23 g/m*3 13.4 C 0 km/h
8 29-09-2011 01:34:01 13.5 C 10.29 g/m*3 13.5 C 0 km/h
9 29-09-2011 01:46:01 13.5 C 10.29 g/m*3 13.5 C 0 km/h
10 29-09-2011 01:58:01 13 C 9.98 g/m*3 13 C 0 km/h
11 29-09-2011 02:10:01 12.8 C 9.97 g/m*3 12.8 C 0 km/h
12 29-09-2011 02:22:02 12.7 C 9.91 g/m*3 12.7 C 0 km/h
13 29-09-2011 02:34:01 12.7 C 9.91 g/m*3 12.7 C 0 km/h
14 29-09-2011 02:46:02 12.7 C 9.91 g/m*3 12.7 C 0 km/h
15 29-09-2011 02:58:02 12.5 C 9.78 g/m*3 12.5 C 0 km/h
16 29-09-2011 03:10:01 12.2 C 9.6 g/m*3 12.2 C 0 km/h
17 29-09-2011 03:22:01 12.4 C 9.72 g/m*3 12.4 C 0 km/h
18 29-09-2011 03:34:02 12 C 9.48 g/m*3 12 C 0 km/h
19 29-09-2011 03:46:02 11.8 C 9.37 g/m*3 11.8 C 0 km/h
20 29-09-2011 03:58:02 11.6 C 9.25 g/m*3 11.6 C 0 km/h
21 29-09-2011 04:10:01 11.7 C 9.31 g/m*3 11.7 C 0 km/h
22 29-09-2011 04:22:02 11.9 C 9.53 g/m*3 11.9 C 0 km/h
23 29-09-2011 04:34:01 12.1 C 9.54 g/m*3 12.1 C 0 km/h
24 29-09-2011 04:46:02 12.2 C 9.6 g/m*3 12.2 C 0 km/h
25 29-09-2011 04:58:02 12.2 C 9.6 g/m*3 12.2 C 0 km/h
Sensor: Nr:Datum:Temp:Abs-Feuchte:Windchill:Wind:
Aussen-T/F 26 29-09-2011 05:10:01 12.4 C 9.72 g/m*3 12.4 C 0 km/h
27 29-09-2011 05:22:01 12.5 C 9.78 g/m*3 12.5 C 0 km/h
28 29-09-2011 05:34:02 12.4 C 9.72 g/m*3 12.4 C 0 km/h
29 29-09-2011 05:46:01 12.5 C 9.89 g/m*3 12.5 C 0 km/h
30 29-09-2011 05:58:01 12.6 C 9.96 g/m*3 12.6 C 0 km/h
31 29-09-2011 06:10:02 12.5 C 9.89 g/m*3 12.5 C 0 km/h
32 29-09-2011 06:22:01 12.3 C 9.77 g/m*3 12.3 C 0 km/h
33 29-09-2011 06:34:02 12.4 C 9.83 g/m*3 12.4 C 0 km/h
34 29-09-2011 06:46:01 12.3 C 9.77 g/m*3 12.3 C 0 km/h
35 29-09-2011 06:58:01 12.4 C 9.83 g/m*3 12.4 C 0 km/h
36 29-09-2011 07:10:02 12.3 C 9.77 g/m*3 12.3 C 0 km/h
37 29-09-2011 07:22:01 12.2 C 9.71 g/m*3 12.2 C 0 km/h
38 29-09-2011 07:34:01 12.2 C 9.71 g/m*3 12.2 C 0 km/h
39 29-09-2011 07:46:01 12.3 C 9.77 g/m*3 12.3 C 0 km/h
40 29-09-2011 07:58:01 12.3 C 9.77 g/m*3 12.3 C 0 km/h
41 29-09-2011 08:10:01 12.5 C 9.89 g/m*3 12.5 C 0 km/h
42 29-09-2011 08:22:02 12.5 C 9.89 g/m*3 12.5 C 0 km/h
43 29-09-2011 08:34:01 12.4 C 9.83 g/m*3 12.4 C 0 km/h
44 29-09-2011 08:46:02 12.6 C 9.96 g/m*3 12.6 C 0 km/h
45 29-09-2011 08:58:02 12.8 C 10.08 g/m*3 12.8 C 0 km/h
46 29-09-2011 09:10:01 13 C 10.21 g/m*3 13 C 0 km/h
47 29-09-2011 09:22:01 13.2 C 10.33 g/m*3 13.2 C 0 km/h
48 29-09-2011 09:34:01 13.1 C 10.27 g/m*3 13.1 C 0 km/h
49 29-09-2011 09:46:01 13.2 C 10.33 g/m*3 13.2 C 0 km/h
50 29-09-2011 09:58:02 13.7 C 10.66 g/m*3 13.7 C 0 km/h
Sensor: Nr:Datum:Temp:Abs-Feuchte:Windchill:Wind:
Aussen-T/F 51 29-09-2011 10:10:01 13.9 C 10.79 g/m*3 13.9 C 0 km/h
52 29-09-2011 10:22:01 14.3 C 10.93 g/m*3 14.3 C 0 km/h
53 29-09-2011 10:34:02 14 C 10.61 g/m*3 14 C 0 km/h
54 29-09-2011 10:46:01 14 C 10.49 g/m*3 14 C 0 km/h
55 29-09-2011 10:58:01 14.2 C 10.62 g/m*3 14.2 C 0 km/h
56 29-09-2011 11:10:02 14.1 C 10.56 g/m*3 14.1 C 0 km/h
57 29-09-2011 11:22:01 14.4 C 10.88 g/m*3 14.4 C 0 km/h
58 29-09-2011 11:34:01 15 C 11.16 g/m*3 15 C 0 km/h
59 29-09-2011 11:46:01 15.5 C 11.63 g/m*3 15.5 C 0 km/h
60 29-09-2011 11:58:01 15.6 C 11.7 g/m*3 15.6 C 0 km/h
61 29-09-2011 12:10:01 16.2 C 12 g/m*3 16.2 C 0 km/h
62 29-09-2011 12:22:02 16.9 C 12.08 g/m*3 16.9 C 0 km/h
63 29-09-2011 12:34:01 17.6 C 11.55 g/m*3 17.6 C 0 km/h
64 29-09-2011 12:46:02 18.5 C 11.08 g/m*3 18.5 C 0 km/h
65 29-09-2011 12:58:02 19.3 C 10.95 g/m*3 19.3 C 0 km/h
66 29-09-2011 13:10:01 19.6 C 10.8 g/m*3 19.6 C 0 km/h
67 29-09-2011 13:22:02 20.3 C 10.55 g/m*3 20.3 C 0 km/h
68 29-09-2011 13:34:01 21.6 C 11 g/m*3 21.6 C 0 km/h
69 29-09-2011 13:46:02 22 C 10.29 g/m*3 22 C 0 km/h
70 29-09-2011 13:58:02 22.2 C 9.82 g/m*3 22.2 C 0 km/h
71 29-09-2011 14:10:01 22.5 C 9.99 g/m*3 22.5 C 0 km/h
72 29-09-2011 14:22:01 22.5 C 9.79 g/m*3 22.5 C 0 km/h
73 29-09-2011 14:34:02 22.6 C 9.84 g/m*3 22.6 C 0 km/h
74 29-09-2011 14:46:01 23 C 10.07 g/m*3 23 C 0 km/h
75 29-09-2011 14:58:01 23.4 C 10.3 g/m*3 23.4 C 0 km/h
Sensor: Nr:Datum:Temp:Abs-Feuchte:Windchill:Wind:
Aussen-T/F 76 29-09-2011 15:10:02 23.7 C 10.27 g/m*3 23.7 C 0 km/h
77 29-09-2011 15:22:01 23.7 C 10.05 g/m*3 23.7 C 0 km/h
78 29-09-2011 15:34:01 23.4 C 10.3 g/m*3 23.4 C 0 km/h
79 29-09-2011 15:46:01 22.8 C 9.96 g/m*3 22.8 C 0 km/h
80 29-09-2011 15:58:01 22.6 C 10.04 g/m*3 22.6 C 0 km/h
81 29-09-2011 16:10:02 23.1 C 9.72 g/m*3 23.1 C 0 km/h
82 29-09-2011 16:22:01 25.3 C 10.07 g/m*3 25.3 C 0 km/h
83 29-09-2011 16:34:01 27.7 C 8.83 g/m*3 27.7 C 0 km/h
84 29-09-2011 16:46:01 27.5 C 9.79 g/m*3 27.5 C 0 km/h
85 29-09-2011 16:58:01 28.4 C 9.45 g/m*3 28.4 C 0 km/h
86 29-09-2011 17:10:01 29 C 9.77 g/m*3 29 C 0 km/h
87 29-09-2011 17:22:02 28.4 C 9.45 g/m*3 28.4 C 0 km/h
88 29-09-2011 17:34:01 28.5 C 9.78 g/m*3 28.5 C 0 km/h
89 29-09-2011 17:46:02 25.2 C 9.54 g/m*3 25.2 C 0 km/h
90 29-09-2011 17:58:02 23.8 C 10.33 g/m*3 23.8 C 0 km/h
91 29-09-2011 18:10:01 22.9 C 10.01 g/m*3 22.9 C 0 km/h
92 29-09-2011 18:22:01 21 C 8.79 g/m*3 21 C 0 km/h
93 29-09-2011 18:34:02 20.7 C 8.64 g/m*3 20.7 C 0 km/h
94 29-09-2011 18:46:01 20.6 C 8.95 g/m*3 20.6 C 0 km/h
95 29-09-2011 18:58:01 19.5 C 8.73 g/m*3 19.5 C 0 km/h
96 29-09-2011 19:10:01 18.2 C 9.01 g/m*3 18.2 C 0 km/h
97 29-09-2011 19:22:01 17.6 C 9.15 g/m*3 17.6 C 0 km/h
98 29-09-2011 19:34:02 17.1 C 9.32 g/m*3 17.1 C 0 km/h
99 29-09-2011 19:46:01 17 C 9.26 g/m*3 17 C 0 km/h
100 29-09-2011 19:58:01 17 C 9.41 g/m*3 17 C 0 km/h
Sensor: Nr:Datum:Temp:Abs-Feuchte:Windchill:Wind:
Aussen-T/F 101 29-09-2011 20:10:02 16.8 C 9.58 g/m*3 16.8 C 0 km/h
102 29-09-2011 20:22:01 16.2 C 9.52 g/m*3 16.2 C 0 km/h
103 29-09-2011 20:34:01 16 C 9.67 g/m*3 16 C 0 km/h
104 29-09-2011 20:46:01 15.7 C 9.9 g/m*3 15.7 C 0 km/h
105 29-09-2011 20:58:01 15 C 9.62 g/m*3 15 C 0 km/h
106 29-09-2011 21:10:01 14.4 C 9.39 g/m*3 14.4 C 0 km/h
107 29-09-2011 21:22:02 14.1 C 9.34 g/m*3 14.1 C 0 km/h
108 29-09-2011 21:34:01 13.8 C 9.41 g/m*3 13.8 C 0 km/h
109 29-09-2011 21:46:02 13.6 C 9.53 g/m*3 13.6 C 0 km/h
110 29-09-2011 21:58:02 13.4 C 9.42 g/m*3 13.4 C 0 km/h
111 29-09-2011 22:10:01 13.1 C 9.36 g/m*3 13.1 C 0 km/h
112 29-09-2011 22:23:02 12.8 C 9.3 g/m*3 12.8 C 0 km/h
113 29-09-2011 22:35:02 12.7 C 9.24 g/m*3 12.7 C 0 km/h
114 29-09-2011 22:47:02 12.5 C 9.13 g/m*3 12.5 C 0 km/h
115 29-09-2011 22:59:02 12.4 C 9.07 g/m*3 12.4 C 0 km/h
116 29-09-2011 23:11:02 12.4 C 9.18 g/m*3 12.4 C 0 km/h
117 29-09-2011 23:23:02 11.9 C 9 g/m*3 11.9 C 0 km/h
118 29-09-2011 23:35:02 11.9 C 9 g/m*3 11.9 C 0 km/h
119 29-09-2011 23:47:02 11.8 C 9.05 g/m*3 11.8 C 0 km/h
120 29-09-2011 23:59:02 11.5 C 8.78 g/m*3 11.5 C 0 km/h

Legende:
   Min
   Max


Maximal/Minimal-Werte vom 29.09.2011 - 29.09.2011

Sensor Min Max Avg
Temp
(Aussen-T/F)
11.5 °C
29-09-2011  23:59:02
29 °C
29-09-2011  17:10:01
16.13 °C
Abs-Feuchte
(Aussen-T/F)
8.64 g/m*3
29-09-2011  18:34:02
12.08 g/m*3
29-09-2011  12:22:02
9.85 g/m*3
Windchill
(Aussen-T/F)
11.5 C
29-09-2011  23:59:02
29 C
29-09-2011  17:10:01
16 C

Die Daten stammen von einer Davis Vantage Pro 2 Wetter-Station und werden unter Linux mit der Software wview2wettercgi und aufbereitet. Alle Angaben erfolgen ohne Gewähr für ihre Vollständigkeit oder Richtigkeit.
Kontakt: Rainer Krienke krienke@uni-koblenz.de . Meine Webseiten an der Uni Koblenz oder privat.
Version: $Revision: 0.78 $